sensor_id;sensor_type;location;lat;lon;timestamp;P1;durP1;ratioP1;P2;durP2;ratioP2
8230;SDS011;4156;50.908;6.974;2023-07-20T00:02:19;4.03;;;2.20;;
8230;SDS011;4156;50.908;6.974;2023-07-20T00:04:45;3.60;;;2.47;;
8230;SDS011;4156;50.908;6.974;2023-07-20T00:07:10;7.33;;;2.47;;
8230;SDS011;4156;50.908;6.974;2023-07-20T00:09:36;7.30;;;2.50;;
8230;SDS011;4156;50.908;6.974;2023-07-20T00:12:01;3.87;;;2.47;;
8230;SDS011;4156;50.908;6.974;2023-07-20T00:14:27;4.60;;;2.60;;
8230;SDS011;4156;50.908;6.974;2023-07-20T00:16:54;5.17;;;2.30;;
8230;SDS011;4156;50.908;6.974;2023-07-20T00:19:21;4.33;;;2.67;;
8230;SDS011;4156;50.908;6.974;2023-07-20T00:21:51;3.00;;;2.20;;
8230;SDS011;4156;50.908;6.974;2023-07-20T00:24:17;4.80;;;2.40;;
8230;SDS011;4156;50.908;6.974;2023-07-20T00:26:43;3.87;;;2.30;;
8230;SDS011;4156;50.908;6.974;2023-07-20T00:29:08;4.57;;;2.60;;
8230;SDS011;4156;50.908;6.974;2023-07-20T00:31:34;5.07;;;2.20;;
8230;SDS011;4156;50.908;6.974;2023-07-20T00:34:02;6.20;;;2.80;;
8230;SDS011;4156;50.908;6.974;2023-07-20T00:36:28;4.07;;;2.47;;
8230;SDS011;4156;50.908;6.974;2023-07-20T00:38:53;5.10;;;2.60;;
8230;SDS011;4156;50.908;6.974;2023-07-20T00:41:19;4.47;;;2.43;;
8230;SDS011;4156;50.908;6.974;2023-07-20T00:43:44;8.03;;;3.10;;
8230;SDS011;4156;50.908;6.974;2023-07-20T00:46:10;3.70;;;2.60;;
8230;SDS011;4156;50.908;6.974;2023-07-20T00:48:36;3.80;;;2.50;;
8230;SDS011;4156;50.908;6.974;2023-07-20T00:51:01;6.17;;;2.70;;
8230;SDS011;4156;50.908;6.974;2023-07-20T00:53:27;5.13;;;2.80;;
8230;SDS011;4156;50.908;6.974;2023-07-20T00:55:53;3.30;;;2.40;;
8230;SDS011;4156;50.908;6.974;2023-07-20T00:58:19;4.40;;;2.40;;
8230;SDS011;4156;50.908;6.974;2023-07-20T01:00:45;3.47;;;2.70;;
8230;SDS011;4156;50.908;6.974;2023-07-20T01:03:11;6.60;;;2.63;;
8230;SDS011;4156;50.908;6.974;2023-07-20T01:08:27;4.07;;;2.43;;
8230;SDS011;4156;50.908;6.974;2023-07-20T01:11:09;4.93;;;2.50;;
8230;SDS011;4156;50.908;6.974;2023-07-20T01:13:41;5.00;;;2.63;;
8230;SDS011;4156;50.908;6.974;2023-07-20T01:16:08;4.33;;;2.10;;
8230;SDS011;4156;50.908;6.974;2023-07-20T01:18:34;3.10;;;2.43;;
8230;SDS011;4156;50.908;6.974;2023-07-20T01:21:01;5.13;;;2.70;;
8230;SDS011;4156;50.908;6.974;2023-07-20T01:23:47;6.13;;;2.30;;
8230;SDS011;4156;50.908;6.974;2023-07-20T01:31:23;3.70;;;2.47;;
8230;SDS011;4156;50.908;6.974;2023-07-20T01:33:50;4.23;;;2.30;;
8230;SDS011;4156;50.908;6.974;2023-07-20T01:36:19;3.27;;;2.40;;
8230;SDS011;4156;50.908;6.974;2023-07-20T01:38:46;2.90;;;2.20;;
8230;SDS011;4156;50.908;6.974;2023-07-20T01:41:12;3.33;;;2.40;;
8230;SDS011;4156;50.908;6.974;2023-07-20T01:43:39;3.17;;;2.10;;
8230;SDS011;4156;50.908;6.974;2023-07-20T01:46:05;3.77;;;2.33;;
8230;SDS011;4156;50.908;6.974;2023-07-20T01:48:31;4.43;;;2.10;;
8230;SDS011;4156;50.908;6.974;2023-07-20T01:50:56;2.80;;;2.20;;
8230;SDS011;4156;50.908;6.974;2023-07-20T01:53:22;3.23;;;2.20;;
8230;SDS011;4156;50.908;6.974;2023-07-20T01:55:47;2.50;;;2.20;;
8230;SDS011;4156;50.908;6.974;2023-07-20T01:58:13;4.33;;;2.53;;
8230;SDS011;4156;50.908;6.974;2023-07-20T02:00:39;4.27;;;2.50;;
8230;SDS011;4156;50.908;6.974;2023-07-20T02:03:04;3.90;;;2.67;;
8230;SDS011;4156;50.908;6.974;2023-07-20T02:05:30;4.13;;;2.73;;
8230;SDS011;4156;50.908;6.974;2023-07-20T02:07:55;2.47;;;2.20;;
8230;SDS011;4156;50.908;6.974;2023-07-20T02:10:21;5.10;;;2.27;;
8230;SDS011;4156;50.908;6.974;2023-07-20T02:12:46;5.07;;;2.60;;
8230;SDS011;4156;50.908;6.974;2023-07-20T02:15:12;4.60;;;2.80;;
8230;SDS011;4156;50.908;6.974;2023-07-20T02:17:41;5.53;;;2.77;;
8230;SDS011;4156;50.908;6.974;2023-07-20T02:20:07;5.97;;;2.70;;
8230;SDS011;4156;50.908;6.974;2023-07-20T02:22:35;3.70;;;2.40;;
8230;SDS011;4156;50.908;6.974;2023-07-20T02:25:04;4.73;;;2.97;;
8230;SDS011;4156;50.908;6.974;2023-07-20T02:27:32;4.80;;;2.43;;
8230;SDS011;4156;50.908;6.974;2023-07-20T02:30:01;3.90;;;2.47;;
8230;SDS011;4156;50.908;6.974;2023-07-20T02:32:27;3.20;;;2.47;;
8230;SDS011;4156;50.908;6.974;2023-07-20T02:34:53;4.87;;;2.80;;
8230;SDS011;4156;50.908;6.974;2023-07-20T02:37:19;2.90;;;2.40;;
8230;SDS011;4156;50.908;6.974;2023-07-20T02:39:44;4.10;;;2.87;;
8230;SDS011;4156;50.908;6.974;2023-07-20T02:42:10;4.00;;;3.00;;
8230;SDS011;4156;50.908;6.974;2023-07-20T02:44:36;4.47;;;2.80;;
8230;SDS011;4156;50.908;6.974;2023-07-20T02:47:01;4.90;;;2.60;;
8230;SDS011;4156;50.908;6.974;2023-07-20T02:49:27;4.70;;;2.60;;
8230;SDS011;4156;50.908;6.974;2023-07-20T02:51:52;4.10;;;2.90;;
8230;SDS011;4156;50.908;6.974;2023-07-20T02:54:19;3.07;;;2.40;;
8230;SDS011;4156;50.908;6.974;2023-07-20T02:56:44;4.63;;;2.50;;
8230;SDS011;4156;50.908;6.974;2023-07-20T02:59:10;3.37;;;2.70;;
8230;SDS011;4156;50.908;6.974;2023-07-20T03:01:35;3.43;;;2.40;;
8230;SDS011;4156;50.908;6.974;2023-07-20T03:04:01;4.00;;;2.90;;
8230;SDS011;4156;50.908;6.974;2023-07-20T03:06:27;4.43;;;2.70;;
8230;SDS011;4156;50.908;6.974;2023-07-20T03:08:53;3.83;;;2.43;;
8230;SDS011;4156;50.908;6.974;2023-07-20T03:11:19;4.30;;;2.70;;
8230;SDS011;4156;50.908;6.974;2023-07-20T03:13:45;5.53;;;2.93;;
8230;SDS011;4156;50.908;6.974;2023-07-20T03:16:12;3.40;;;2.80;;
8230;SDS011;4156;50.908;6.974;2023-07-20T03:18:41;4.57;;;2.57;;
8230;SDS011;4156;50.908;6.974;2023-07-20T03:21:07;5.67;;;2.90;;
8230;SDS011;4156;50.908;6.974;2023-07-20T03:23:33;3.33;;;2.47;;
8230;SDS011;4156;50.908;6.974;2023-07-20T03:26:00;5.50;;;2.53;;
8230;SDS011;4156;50.908;6.974;2023-07-20T03:28:25;4.40;;;2.60;;
8230;SDS011;4156;50.908;6.974;2023-07-20T03:30:57;4.73;;;2.30;;
8230;SDS011;4156;50.908;6.974;2023-07-20T03:33:25;4.77;;;2.43;;
8230;SDS011;4156;50.908;6.974;2023-07-20T03:35:52;5.50;;;2.87;;
8230;SDS011;4156;50.908;6.974;2023-07-20T03:38:18;4.17;;;2.53;;
8230;SDS011;4156;50.908;6.974;2023-07-20T03:43:23;4.30;;;2.60;;
8230;SDS011;4156;50.908;6.974;2023-07-20T03:45:50;2.77;;;2.47;;
8230;SDS011;4156;50.908;6.974;2023-07-20T03:48:17;5.77;;;2.60;;
8230;SDS011;4156;50.908;6.974;2023-07-20T03:50:44;3.83;;;2.80;;
8230;SDS011;4156;50.908;6.974;2023-07-20T03:53:10;4.07;;;2.47;;
8230;SDS011;4156;50.908;6.974;2023-07-20T03:55:36;4.50;;;2.70;;
8230;SDS011;4156;50.908;6.974;2023-07-20T03:58:02;3.90;;;2.40;;
8230;SDS011;4156;50.908;6.974;2023-07-20T04:00:28;3.67;;;2.57;;
8230;SDS011;4156;50.908;6.974;2023-07-20T04:02:53;3.37;;;2.40;;
8230;SDS011;4156;50.908;6.974;2023-07-20T04:05:19;6.30;;;2.80;;
8230;SDS011;4156;50.908;6.974;2023-07-20T04:07:45;3.60;;;2.67;;
8230;SDS011;4156;50.908;6.974;2023-07-20T04:10:10;3.83;;;2.40;;
8230;SDS011;4156;50.908;6.974;2023-07-20T04:12:36;4.43;;;2.50;;
8230;SDS011;4156;50.908;6.974;2023-07-20T04:15:02;3.70;;;2.77;;
8230;SDS011;4156;50.908;6.974;2023-07-20T04:17:29;4.00;;;2.70;;
8230;SDS011;4156;50.908;6.974;2023-07-20T04:19:54;4.67;;;2.60;;
8230;SDS011;4156;50.908;6.974;2023-07-20T04:22:20;3.33;;;2.33;;
8230;SDS011;4156;50.908;6.974;2023-07-20T04:24:46;4.20;;;2.57;;
8230;SDS011;4156;50.908;6.974;2023-07-20T04:27:11;5.00;;;2.73;;
8230;SDS011;4156;50.908;6.974;2023-07-20T04:29:37;3.50;;;2.47;;
8230;SDS011;4156;50.908;6.974;2023-07-20T04:32:02;3.40;;;2.73;;
8230;SDS011;4156;50.908;6.974;2023-07-20T04:34:28;5.93;;;2.63;;
8230;SDS011;4156;50.908;6.974;2023-07-20T04:36:53;5.43;;;2.40;;
8230;SDS011;4156;50.908;6.974;2023-07-20T04:39:19;5.77;;;2.70;;
8230;SDS011;4156;50.908;6.974;2023-07-20T04:41:45;4.80;;;2.70;;
8230;SDS011;4156;50.908;6.974;2023-07-20T04:44:10;6.00;;;3.07;;
8230;SDS011;4156;50.908;6.974;2023-07-20T04:46:36;4.67;;;2.60;;
8230;SDS011;4156;50.908;6.974;2023-07-20T04:49:01;4.83;;;2.70;;
8230;SDS011;4156;50.908;6.974;2023-07-20T04:51:27;4.77;;;2.43;;
8230;SDS011;4156;50.908;6.974;2023-07-20T04:53:55;4.93;;;2.80;;
8230;SDS011;4156;50.908;6.974;2023-07-20T04:56:21;5.10;;;2.90;;
8230;SDS011;4156;50.908;6.974;2023-07-20T04:58:48;6.53;;;3.23;;
8230;SDS011;4156;50.908;6.974;2023-07-20T05:01:13;6.07;;;3.30;;
8230;SDS011;4156;50.908;6.974;2023-07-20T05:03:39;4.63;;;2.90;;
8230;SDS011;4156;50.908;6.974;2023-07-20T05:06:04;6.70;;;3.17;;
8230;SDS011;4156;50.908;6.974;2023-07-20T05:08:30;3.83;;;2.60;;
8230;SDS011;4156;50.908;6.974;2023-07-20T05:10:55;8.10;;;3.03;;
8230;SDS011;4156;50.908;6.974;2023-07-20T05:13:21;4.63;;;2.50;;
8230;SDS011;4156;50.908;6.974;2023-07-20T05:15:46;4.53;;;2.93;;
8230;SDS011;4156;50.908;6.974;2023-07-20T05:18:15;4.27;;;2.70;;
8230;SDS011;4156;50.908;6.974;2023-07-20T05:20:45;5.13;;;3.00;;
8230;SDS011;4156;50.908;6.974;2023-07-20T05:23:14;5.27;;;3.67;;
8230;SDS011;4156;50.908;6.974;2023-07-20T05:25:41;7.43;;;2.90;;
8230;SDS011;4156;50.908;6.974;2023-07-20T05:28:06;6.13;;;2.80;;
8230;SDS011;4156;50.908;6.974;2023-07-20T05:30:32;5.47;;;2.90;;
8230;SDS011;4156;50.908;6.974;2023-07-20T05:32:57;6.17;;;2.87;;
8230;SDS011;4156;50.908;6.974;2023-07-20T05:35:23;8.03;;;4.57;;
8230;SDS011;4156;50.908;6.974;2023-07-20T05:37:48;4.57;;;2.97;;
8230;SDS011;4156;50.908;6.974;2023-07-20T05:40:14;6.47;;;3.43;;
8230;SDS011;4156;50.908;6.974;2023-07-20T05:42:43;6.97;;;3.10;;
8230;SDS011;4156;50.908;6.974;2023-07-20T05:45:10;5.20;;;2.87;;
8230;SDS011;4156;50.908;6.974;2023-07-20T05:47:35;5.87;;;3.23;;
8230;SDS011;4156;50.908;6.974;2023-07-20T05:50:01;5.70;;;3.33;;
8230;SDS011;4156;50.908;6.974;2023-07-20T05:52:28;8.30;;;3.13;;
8230;SDS011;4156;50.908;6.974;2023-07-20T05:54:54;6.93;;;3.90;;
8230;SDS011;4156;50.908;6.974;2023-07-20T05:57:20;7.37;;;3.40;;
8230;SDS011;4156;50.908;6.974;2023-07-20T05:59:45;6.00;;;3.43;;
8230;SDS011;4156;50.908;6.974;2023-07-20T06:02:11;4.73;;;3.70;;
8230;SDS011;4156;50.908;6.974;2023-07-20T06:04:37;6.67;;;3.60;;
8230;SDS011;4156;50.908;6.974;2023-07-20T06:07:03;5.70;;;3.53;;
8230;SDS011;4156;50.908;6.974;2023-07-20T06:09:30;5.20;;;3.57;;
8230;SDS011;4156;50.908;6.974;2023-07-20T06:11:55;6.03;;;4.20;;
8230;SDS011;4156;50.908;6.974;2023-07-20T06:14:21;6.00;;;4.90;;
8230;SDS011;4156;50.908;6.974;2023-07-20T06:16:47;6.27;;;4.53;;
8230;SDS011;4156;50.908;6.974;2023-07-20T06:19:12;7.33;;;4.97;;
8230;SDS011;4156;50.908;6.974;2023-07-20T06:21:38;8.57;;;4.40;;
8230;SDS011;4156;50.908;6.974;2023-07-20T06:24:04;5.60;;;4.80;;
8230;SDS011;4156;50.908;6.974;2023-07-20T06:26:30;7.27;;;4.17;;
8230;SDS011;4156;50.908;6.974;2023-07-20T06:29:03;6.43;;;3.73;;
8230;SDS011;4156;50.908;6.974;2023-07-20T06:31:28;6.67;;;4.30;;
8230;SDS011;4156;50.908;6.974;2023-07-20T06:33:54;6.33;;;4.47;;
8230;SDS011;4156;50.908;6.974;2023-07-20T06:36:19;6.33;;;4.13;;
8230;SDS011;4156;50.908;6.974;2023-07-20T06:38:45;6.73;;;4.33;;
8230;SDS011;4156;50.908;6.974;2023-07-20T06:41:10;7.93;;;4.70;;
8230;SDS011;4156;50.908;6.974;2023-07-20T06:43:36;6.80;;;4.73;;
8230;SDS011;4156;50.908;6.974;2023-07-20T06:46:01;7.63;;;4.40;;
8230;SDS011;4156;50.908;6.974;2023-07-20T06:48:27;5.73;;;4.67;;
8230;SDS011;4156;50.908;6.974;2023-07-20T06:50:53;8.67;;;4.60;;
8230;SDS011;4156;50.908;6.974;2023-07-20T06:53:19;8.37;;;5.10;;
8230;SDS011;4156;50.908;6.974;2023-07-20T06:55:44;8.17;;;4.37;;
8230;SDS011;4156;50.908;6.974;2023-07-20T06:58:11;7.00;;;5.10;;
8230;SDS011;4156;50.908;6.974;2023-07-20T07:00:36;5.27;;;4.17;;
8230;SDS011;4156;50.908;6.974;2023-07-20T07:03:02;5.83;;;3.60;;
8230;SDS011;4156;50.908;6.974;2023-07-20T07:05:28;5.80;;;3.87;;
8230;SDS011;4156;50.908;6.974;2023-07-20T07:07:53;5.43;;;3.87;;
8230;SDS011;4156;50.908;6.974;2023-07-20T07:10:19;5.47;;;4.93;;
8230;SDS011;4156;50.908;6.974;2023-07-20T07:12:44;5.73;;;3.97;;
8230;SDS011;4156;50.908;6.974;2023-07-20T07:15:10;5.70;;;4.50;;
8230;SDS011;4156;50.908;6.974;2023-07-20T07:17:35;5.40;;;4.00;;
8230;SDS011;4156;50.908;6.974;2023-07-20T07:20:01;6.37;;;4.20;;
8230;SDS011;4156;50.908;6.974;2023-07-20T07:22:28;4.83;;;3.77;;
8230;SDS011;4156;50.908;6.974;2023-07-20T07:24:54;5.22;;;4.07;;
8230;SDS011;4156;50.908;6.974;2023-07-20T07:27:20;3.80;;;3.40;;
8230;SDS011;4156;50.908;6.974;2023-07-20T07:29:45;5.30;;;3.10;;
8230;SDS011;4156;50.908;6.974;2023-07-20T07:32:11;3.50;;;3.00;;
8230;SDS011;4156;50.908;6.974;2023-07-20T07:34:37;6.47;;;3.20;;
8230;SDS011;4156;50.908;6.974;2023-07-20T07:37:06;5.23;;;3.57;;
8230;SDS011;4156;50.908;6.974;2023-07-20T07:39:32;6.30;;;3.10;;
8230;SDS011;4156;50.908;6.974;2023-07-20T07:41:58;4.30;;;3.67;;
8230;SDS011;4156;50.908;6.974;2023-07-20T07:44:23;3.40;;;3.10;;
8230;SDS011;4156;50.908;6.974;2023-07-20T07:46:49;4.90;;;3.37;;
8230;SDS011;4156;50.908;6.974;2023-07-20T07:49:15;5.37;;;3.87;;
8230;SDS011;4156;50.908;6.974;2023-07-20T07:51:41;5.07;;;3.20;;
8230;SDS011;4156;50.908;6.974;2023-07-20T07:54:06;5.30;;;3.30;;
8230;SDS011;4156;50.908;6.974;2023-07-20T07:56:32;4.47;;;2.63;;
8230;SDS011;4156;50.908;6.974;2023-07-20T07:58:57;3.97;;;3.10;;
8230;SDS011;4156;50.908;6.974;2023-07-20T08:01:23;4.80;;;2.90;;
8230;SDS011;4156;50.908;6.974;2023-07-20T08:03:49;4.60;;;3.27;;
8230;SDS011;4156;50.908;6.974;2023-07-20T08:06:14;3.63;;;3.20;;
8230;SDS011;4156;50.908;6.974;2023-07-20T08:08:40;3.57;;;2.80;;
8230;SDS011;4156;50.908;6.974;2023-07-20T08:11:07;4.00;;;2.60;;
8230;SDS011;4156;50.908;6.974;2023-07-20T08:13:33;3.87;;;2.87;;
8230;SDS011;4156;50.908;6.974;2023-07-20T08:15:58;3.30;;;2.63;;
8230;SDS011;4156;50.908;6.974;2023-07-20T08:18:24;2.67;;;2.23;;
8230;SDS011;4156;50.908;6.974;2023-07-20T08:20:49;3.53;;;2.90;;
8230;SDS011;4156;50.908;6.974;2023-07-20T08:23:15;2.80;;;2.20;;
8230;SDS011;4156;50.908;6.974;2023-07-20T08:25:41;2.67;;;2.20;;
8230;SDS011;4156;50.908;6.974;2023-07-20T08:28:09;4.70;;;2.60;;
8230;SDS011;4156;50.908;6.974;2023-07-20T08:30:48;2.70;;;2.40;;
8230;SDS011;4156;50.908;6.974;2023-07-20T08:33:14;3.90;;;2.77;;
8230;SDS011;4156;50.908;6.974;2023-07-20T08:35:41;2.57;;;2.30;;
8230;SDS011;4156;50.908;6.974;2023-07-20T08:38:07;3.50;;;2.50;;
8230;SDS011;4156;50.908;6.974;2023-07-20T08:40:33;4.13;;;2.10;;
8230;SDS011;4156;50.908;6.974;2023-07-20T08:43:04;4.83;;;2.53;;
8230;SDS011;4156;50.908;6.974;2023-07-20T08:45:29;3.77;;;2.40;;
8230;SDS011;4156;50.908;6.974;2023-07-20T08:48:00;4.67;;;2.47;;
8230;SDS011;4156;50.908;6.974;2023-07-20T08:50:27;3.10;;;2.20;;
8230;SDS011;4156;50.908;6.974;2023-07-20T08:52:55;2.50;;;2.13;;
8230;SDS011;4156;50.908;6.974;2023-07-20T08:55:23;4.30;;;2.40;;
8230;SDS011;4156;50.908;6.974;2023-07-20T08:57:50;3.00;;;2.40;;
8230;SDS011;4156;50.908;6.974;2023-07-20T09:00:19;2.70;;;2.03;;
8230;SDS011;4156;50.908;6.974;2023-07-20T09:02:46;2.40;;;1.90;;
8230;SDS011;4156;50.908;6.974;2023-07-20T09:05:15;2.80;;;2.20;;
8230;SDS011;4156;50.908;6.974;2023-07-20T09:07:40;2.30;;;1.90;;
8230;SDS011;4156;50.908;6.974;2023-07-20T09:10:06;3.70;;;2.40;;
8230;SDS011;4156;50.908;6.974;2023-07-20T09:12:35;3.70;;;2.27;;
8230;SDS011;4156;50.908;6.974;2023-07-20T09:15:03;3.67;;;2.10;;
8230;SDS011;4156;50.908;6.974;2023-07-20T09:17:29;3.47;;;2.10;;
8230;SDS011;4156;50.908;6.974;2023-07-20T09:19:55;2.43;;;1.70;;
8230;SDS011;4156;50.908;6.974;2023-07-20T09:22:20;2.23;;;1.83;;
8230;SDS011;4156;50.908;6.974;2023-07-20T09:24:46;2.83;;;1.93;;
8230;SDS011;4156;50.908;6.974;2023-07-20T09:27:12;2.27;;;1.93;;
8230;SDS011;4156;50.908;6.974;2023-07-20T09:29:47;4.40;;;2.13;;
8230;SDS011;4156;50.908;6.974;2023-07-20T09:32:17;3.17;;;2.30;;
8230;SDS011;4156;50.908;6.974;2023-07-20T09:34:45;4.03;;;2.20;;
8230;SDS011;4156;50.908;6.974;2023-07-20T09:37:11;2.37;;;2.00;;
8230;SDS011;4156;50.908;6.974;2023-07-20T09:39:43;3.57;;;2.17;;
8230;SDS011;4156;50.908;6.974;2023-07-20T09:42:10;2.67;;;1.90;;
8230;SDS011;4156;50.908;6.974;2023-07-20T09:44:38;3.07;;;2.00;;
8230;SDS011;4156;50.908;6.974;2023-07-20T09:47:04;3.03;;;2.07;;
8230;SDS011;4156;50.908;6.974;2023-07-20T09:49:30;2.13;;;1.80;;
8230;SDS011;4156;50.908;6.974;2023-07-20T09:51:59;2.50;;;1.73;;
8230;SDS011;4156;50.908;6.974;2023-07-20T09:54:27;4.93;;;2.20;;
8230;SDS011;4156;50.908;6.974;2023-07-20T09:56:54;3.67;;;2.00;;
8230;SDS011;4156;50.908;6.974;2023-07-20T09:59:21;2.63;;;1.93;;
8230;SDS011;4156;50.908;6.974;2023-07-20T10:01:46;2.40;;;2.10;;
8230;SDS011;4156;50.908;6.974;2023-07-20T10:04:14;5.17;;;2.13;;
8230;SDS011;4156;50.908;6.974;2023-07-20T10:06:42;2.63;;;2.00;;
8230;SDS011;4156;50.908;6.974;2023-07-20T10:09:08;3.60;;;2.00;;
8230;SDS011;4156;50.908;6.974;2023-07-20T10:11:40;2.90;;;1.60;;
8230;SDS011;4156;50.908;6.974;2023-07-20T10:14:14;3.07;;;1.70;;
8230;SDS011;4156;50.908;6.974;2023-07-20T10:16:58;5.00;;;1.80;;
8230;SDS011;4156;50.908;6.974;2023-07-20T10:22:25;2.53;;;1.70;;
8230;SDS011;4156;50.908;6.974;2023-07-20T10:24:56;1.50;;;1.40;;
8230;SDS011;4156;50.908;6.974;2023-07-20T10:27:38;3.10;;;1.90;;
8230;SDS011;4156;50.908;6.974;2023-07-20T10:30:13;2.23;;;1.80;;
8230;SDS011;4156;50.908;6.974;2023-07-20T10:32:44;1.83;;;1.63;;
8230;SDS011;4156;50.908;6.974;2023-07-20T10:38:41;3.50;;;1.60;;
8230;SDS011;4156;50.908;6.974;2023-07-20T10:41:20;1.83;;;1.60;;
8230;SDS011;4156;50.908;6.974;2023-07-20T10:44:06;2.73;;;1.70;;
8230;SDS011;4156;50.908;6.974;2023-07-20T10:46:45;2.10;;;1.50;;
8230;SDS011;4156;50.908;6.974;2023-07-20T10:49:16;1.90;;;1.70;;
8230;SDS011;4156;50.908;6.974;2023-07-20T10:52:11;1.90;;;1.60;;
8230;SDS011;4156;50.908;6.974;2023-07-20T10:54:46;3.23;;;1.80;;
8230;SDS011;4156;50.908;6.974;2023-07-20T10:57:32;2.03;;;1.60;;
8230;SDS011;4156;50.908;6.974;2023-07-20T11:00:09;3.63;;;1.87;;
8230;SDS011;4156;50.908;6.974;2023-07-20T11:02:48;2.27;;;1.70;;
8230;SDS011;4156;50.908;6.974;2023-07-20T11:05:39;1.90;;;1.40;;
8230;SDS011;4156;50.908;6.974;2023-07-20T11:08:11;1.60;;;1.50;;
8230;SDS011;4156;50.908;6.974;2023-07-20T11:14:03;1.97;;;1.80;;
8230;SDS011;4156;50.908;6.974;2023-07-20T11:26:53;2.83;;;1.67;;
8230;SDS011;4156;50.908;6.974;2023-07-20T11:29:24;2.47;;;1.60;;
8230;SDS011;4156;50.908;6.974;2023-07-20T11:31:51;3.40;;;1.67;;
8230;SDS011;4156;50.908;6.974;2023-07-20T11:34:25;1.80;;;1.40;;
8230;SDS011;4156;50.908;6.974;2023-07-20T11:36:54;2.67;;;1.70;;
8230;SDS011;4156;50.908;6.974;2023-07-20T11:39:21;1.83;;;1.60;;
8230;SDS011;4156;50.908;6.974;2023-07-20T11:42:00;1.57;;;1.47;;
8230;SDS011;4156;50.908;6.974;2023-07-20T11:44:30;1.90;;;1.70;;
8230;SDS011;4156;50.908;6.974;2023-07-20T11:47:15;2.23;;;1.60;;
8230;SDS011;4156;50.908;6.974;2023-07-20T11:50:05;1.63;;;1.43;;
8230;SDS011;4156;50.908;6.974;2023-07-20T11:52:33;2.73;;;1.47;;
8230;SDS011;4156;50.908;6.974;2023-07-20T11:55:02;1.60;;;1.50;;
8230;SDS011;4156;50.908;6.974;2023-07-20T11:57:30;2.13;;;1.50;;
8230;SDS011;4156;50.908;6.974;2023-07-20T12:00:13;1.33;;;1.23;;
8230;SDS011;4156;50.908;6.974;2023-07-20T12:02:43;2.50;;;1.53;;
8230;SDS011;4156;50.908;6.974;2023-07-20T12:05:13;2.30;;;1.47;;
8230;SDS011;4156;50.908;6.974;2023-07-20T12:07:54;3.07;;;1.80;;
8230;SDS011;4156;50.908;6.974;2023-07-20T12:10:38;3.20;;;1.60;;
8230;SDS011;4156;50.908;6.974;2023-07-20T12:13:11;1.60;;;1.43;;
8230;SDS011;4156;50.908;6.974;2023-07-20T12:15:41;1.93;;;1.60;;
8230;SDS011;4156;50.908;6.974;2023-07-20T12:18:08;1.33;;;1.23;;
8230;SDS011;4156;50.908;6.974;2023-07-20T12:20:35;1.97;;;1.77;;
8230;SDS011;4156;50.908;6.974;2023-07-20T12:23:11;2.10;;;1.60;;
8230;SDS011;4156;50.908;6.974;2023-07-20T12:25:51;4.60;;;1.80;;
8230;SDS011;4156;50.908;6.974;2023-07-20T12:28:25;3.07;;;1.97;;
8230;SDS011;4156;50.908;6.974;2023-07-20T12:30:54;3.27;;;1.80;;
8230;SDS011;4156;50.908;6.974;2023-07-20T12:33:23;5.87;;;1.50;;
8230;SDS011;4156;50.908;6.974;2023-07-20T12:35:52;1.80;;;1.40;;
8230;SDS011;4156;50.908;6.974;2023-07-20T12:38:24;4.17;;;2.07;;
8230;SDS011;4156;50.908;6.974;2023-07-20T12:41:06;5.60;;;1.90;;
8230;SDS011;4156;50.908;6.974;2023-07-20T12:43:45;2.60;;;1.60;;
8230;SDS011;4156;50.908;6.974;2023-07-20T12:46:15;2.80;;;1.50;;
8230;SDS011;4156;50.908;6.974;2023-07-20T12:49:06;1.60;;;1.50;;
8230;SDS011;4156;50.908;6.974;2023-07-20T12:51:39;3.77;;;1.77;;
8230;SDS011;4156;50.908;6.974;2023-07-20T12:54:24;2.00;;;1.60;;
8230;SDS011;4156;50.908;6.974;2023-07-20T12:57:03;1.30;;;1.20;;
8230;SDS011;4156;50.908;6.974;2023-07-20T12:59:29;1.67;;;1.47;;
8230;SDS011;4156;50.908;6.974;2023-07-20T13:01:55;2.43;;;1.47;;
8230;SDS011;4156;50.908;6.974;2023-07-20T13:04:32;1.67;;;1.50;;
8230;SDS011;4156;50.908;6.974;2023-07-20T13:07:38;1.87;;;1.37;;
8230;SDS011;4156;50.908;6.974;2023-07-20T13:10:15;1.70;;;1.57;;
8230;SDS011;4156;50.908;6.974;2023-07-20T13:13:01;2.83;;;1.60;;
8230;SDS011;4156;50.908;6.974;2023-07-20T13:15:48;1.87;;;1.50;;
8230;SDS011;4156;50.908;6.974;2023-07-20T13:18:19;1.40;;;1.30;;
8230;SDS011;4156;50.908;6.974;2023-07-20T13:21:10;5.30;;;2.63;;
8230;SDS011;4156;50.908;6.974;2023-07-20T13:24:15;2.47;;;1.50;;
8230;SDS011;4156;50.908;6.974;2023-07-20T13:27:04;1.63;;;1.30;;
8230;SDS011;4156;50.908;6.974;2023-07-20T13:29:36;1.53;;;1.43;;
8230;SDS011;4156;50.908;6.974;2023-07-20T13:32:10;2.20;;;1.50;;
8230;SDS011;4156;50.908;6.974;2023-07-20T13:34:46;4.80;;;1.40;;
8230;SDS011;4156;50.908;6.974;2023-07-20T13:37:30;3.90;;;1.50;;
8230;SDS011;4156;50.908;6.974;2023-07-20T13:40:07;1.50;;;1.40;;
8230;SDS011;4156;50.908;6.974;2023-07-20T13:43:04;1.40;;;1.30;;
8230;SDS011;4156;50.908;6.974;2023-07-20T13:49:13;1.80;;;1.23;;
8230;SDS011;4156;50.908;6.974;2023-07-20T13:51:42;2.00;;;1.40;;
8230;SDS011;4156;50.908;6.974;2023-07-20T13:54:15;3.00;;;1.40;;
8230;SDS011;4156;50.908;6.974;2023-07-20T13:57:06;2.00;;;1.27;;
8230;SDS011;4156;50.908;6.974;2023-07-20T14:00:00;1.33;;;1.23;;
8230;SDS011;4156;50.908;6.974;2023-07-20T14:03:07;1.60;;;1.50;;
8230;SDS011;4156;50.908;6.974;2023-07-20T14:06:02;3.77;;;1.73;;
8230;SDS011;4156;50.908;6.974;2023-07-20T14:08:32;1.50;;;1.40;;
8230;SDS011;4156;50.908;6.974;2023-07-20T14:21:24;1.90;;;1.47;;
8230;SDS011;4156;50.908;6.974;2023-07-20T14:24:13;2.20;;;1.40;;
8230;SDS011;4156;50.908;6.974;2023-07-20T14:26:38;1.33;;;1.23;;
8230;SDS011;4156;50.908;6.974;2023-07-20T14:32:17;1.37;;;1.27;;
8230;SDS011;4156;50.908;6.974;2023-07-20T14:34:43;1.20;;;1.10;;
8230;SDS011;4156;50.908;6.974;2023-07-20T14:37:19;1.33;;;1.20;;
8230;SDS011;4156;50.908;6.974;2023-07-20T14:39:53;1.47;;;1.37;;
8230;SDS011;4156;50.908;6.974;2023-07-20T14:42:24;1.40;;;1.30;;
8230;SDS011;4156;50.908;6.974;2023-07-20T14:45:03;1.40;;;1.30;;
8230;SDS011;4156;50.908;6.974;2023-07-20T14:47:39;1.47;;;1.37;;
8230;SDS011;4156;50.908;6.974;2023-07-20T14:50:05;1.33;;;1.23;;
8230;SDS011;4156;50.908;6.974;2023-07-20T14:52:31;1.33;;;1.17;;
8230;SDS011;4156;50.908;6.974;2023-07-20T14:54:56;1.60;;;1.20;;
8230;SDS011;4156;50.908;6.974;2023-07-20T14:57:22;1.60;;;1.50;;
8230;SDS011;4156;50.908;6.974;2023-07-20T14:59:51;2.00;;;1.60;;
8230;SDS011;4156;50.908;6.974;2023-07-20T15:02:17;1.55;;;1.45;;
8230;SDS011;4156;50.908;6.974;2023-07-20T15:04:46;1.30;;;1.20;;
8230;SDS011;4156;50.908;6.974;2023-07-20T15:07:12;1.30;;;1.20;;
8230;SDS011;4156;50.908;6.974;2023-07-20T15:09:38;1.47;;;1.37;;
8230;SDS011;4156;50.908;6.974;2023-07-20T15:12:04;1.50;;;1.40;;
8230;SDS011;4156;50.908;6.974;2023-07-20T15:14:30;1.27;;;1.17;;
8230;SDS011;4156;50.908;6.974;2023-07-20T15:16:56;1.37;;;1.23;;
8230;SDS011;4156;50.908;6.974;2023-07-20T15:19:21;1.60;;;1.50;;
8230;SDS011;4156;50.908;6.974;2023-07-20T15:21:47;1.80;;;1.40;;
8230;SDS011;4156;50.908;6.974;2023-07-20T15:24:13;2.10;;;1.47;;
8230;SDS011;4156;50.908;6.974;2023-07-20T15:26:38;1.70;;;1.20;;
8230;SDS011;4156;50.908;6.974;2023-07-20T15:29:06;1.20;;;1.10;;
8230;SDS011;4156;50.908;6.974;2023-07-20T15:31:31;11.83;;;1.40;;
8230;SDS011;4156;50.908;6.974;2023-07-20T15:33:57;1.53;;;1.43;;
8230;SDS011;4156;50.908;6.974;2023-07-20T15:36:23;1.30;;;1.20;;
8230;SDS011;4156;50.908;6.974;2023-07-20T15:38:48;2.33;;;1.40;;
8230;SDS011;4156;50.908;6.974;2023-07-20T15:41:14;1.23;;;1.13;;
8230;SDS011;4156;50.908;6.974;2023-07-20T15:43:40;1.27;;;1.17;;
8230;SDS011;4156;50.908;6.974;2023-07-20T15:48:45;3.10;;;1.63;;
8230;SDS011;4156;50.908;6.974;2023-07-20T15:51:11;1.90;;;1.40;;
8230;SDS011;4156;50.908;6.974;2023-07-20T15:53:36;2.17;;;1.53;;
8230;SDS011;4156;50.908;6.974;2023-07-20T15:56:02;1.73;;;1.50;;
8230;SDS011;4156;50.908;6.974;2023-07-20T15:58:28;1.40;;;1.30;;
8230;SDS011;4156;50.908;6.974;2023-07-20T16:00:54;1.70;;;1.30;;
8230;SDS011;4156;50.908;6.974;2023-07-20T16:03:20;2.55;;;1.60;;
8230;SDS011;4156;50.908;6.974;2023-07-20T16:05:46;3.17;;;1.47;;
8230;SDS011;4156;50.908;6.974;2023-07-20T16:08:12;1.57;;;1.40;;
8230;SDS011;4156;50.908;6.974;2023-07-20T16:10:38;1.83;;;1.73;;
8230;SDS011;4156;50.908;6.974;2023-07-20T16:13:04;1.50;;;1.30;;
8230;SDS011;4156;50.908;6.974;2023-07-20T16:15:29;1.23;;;1.20;;
8230;SDS011;4156;50.908;6.974;2023-07-20T16:17:55;2.57;;;1.60;;